Map

Track Data

SID SEASON NUMBER BASIN SUBBASIN NAME ISO_TIME NATURE LAT LON WMO_WIND WMO_PRES WMO_AGENCY TRACK_TYPE DIST2LAND LANDFALL IFLAG USA_AGENCY USA_ATCF_ID USA_LAT USA_LON USA_RECORD USA_STATUS USA_WIND USA_PRES USA_SSHS USA_R34_NE USA_R34_SE USA_R34_SW USA_R34_NW USA_R50_NE USA_R50_SE USA_R50_SW USA_R50_NW USA_R64_NE USA_R64_SE USA_R64_SW USA_R64_NW USA_POCI USA_ROCI USA_RMW USA_EYE TOKYO_LAT TOKYO_LON TOKYO_GRADE TOKYO_WIND TOKYO_PRES TOKYO_R50_DIR TOKYO_R50_LONG TOKYO_R50_SHORT TOKYO_R30_DIR TOKYO_R30_LONG TOKYO_R30_SHORT TOKYO_LAND CMA_LAT CMA_LON CMA_CAT CMA_WIND CMA_PRES HKO_LAT HKO_LON HKO_CAT HKO_WIND HKO_PRES NEWDELHI_LAT NEWDELHI_LON NEWDELHI_GRADE NEWDELHI_WIND NEWDELHI_PRES NEWDELHI_CI NEWDELHI_DP NEWDELHI_POCI REUNION_LAT REUNION_LON REUNION_TYPE REUNION_WIND REUNION_PRES REUNION_TNUM REUNION_CI REUNION_RMW REUNION_R34_NE REUNION_R34_SE REUNION_R34_SW REUNION_R34_NW REUNION_R50_NE REUNION_R50_SE REUNION_R50_SW REUNION_R50_NW REUNION_R64_NE REUNION_R64_SE REUNION_R64_SW REUNION_R64_NW BOM_LAT BOM_LON BOM_TYPE BOM_WIND BOM_PRES BOM_TNUM BOM_CI BOM_RMW BOM_R34_NE BOM_R34_SE BOM_R34_SW BOM_R34_NW BOM_R50_NE BOM_R50_SE BOM_R50_SW BOM_R50_NW BOM_R64_NE BOM_R64_SE BOM_R64_SW BOM_R64_NW BOM_ROCI BOM_POCI BOM_EYE BOM_POS_METHOD BOM_PRES_METHOD NADI_LAT NADI_LON NADI_CAT NADI_WIND NADI_PRES WELLINGTON_LAT WELLINGTON_LON WELLINGTON_WIND WELLINGTON_PRES DS824_LAT DS824_LON DS824_STAGE DS824_WIND DS824_PRES TD9636_LAT TD9636_LON TD9636_STAGE TD9636_WIND TD9636_PRES TD9635_LAT TD9635_LON TD9635_WIND TD9635_PRES TD9635_ROCI NEUMANN_LAT NEUMANN_LON NEUMANN_CLASS NEUMANN_WIND NEUMANN_PRES MLC_LAT MLC_LON MLC_CLASS MLC_WIND MLC_PRES USA_GUST BOM_GUST BOM_GUST_PER REUNION_GUST REUNION_GUST_PER USA_SEAHGT USA_SEARAD_NE USA_SEARAD_SE USA_SEARAD_SW USA_SEARAD_NW STORM_SPEED STORM_DIR
1961014S10135 1961 9 SP EA NOT_NAMED 1961-01-14 00:00:00 NR -9.90000 135.100 main 248 247 O_____________ jtwc_sh SH131961 -9.90000 135.100 -1 2 304
1961014S10135 1961 9 SP EA NOT_NAMED 1961-01-14 03:00:00 NR -9.83751 135.000 main 258 254 P_____________ SH131961 -9.83751 135.000 -1 2 297
1961014S10135 1961 9 SI WA NOT_NAMED 1961-01-14 06:00:00 NR -9.80000 134.900 main 254 249 O_____________ jtwc_sh SH131961 -9.80000 134.900 -1 2 281
1961014S10135 1961 9 SI WA NOT_NAMED 1961-01-14 09:00:00 NR -9.80000 134.800 main 249 244 P_____________ SH131961 -9.80000 134.800 -1 2 270
1961014S10135 1961 9 SI WA NOT_NAMED 1961-01-14 12:00:00 NR -9.80000 134.700 main 244 240 O_____________ jtwc_sh SH131961 -9.80000 134.700 -1 2 285
1961014S10135 1961 9 SI WA NOT_NAMED 1961-01-14 15:00:00 NR -9.74998 134.615 main 250 247 P_____________ SH131961 -9.74998 134.615 -1 2 297
1961014S10135 1961 9 SI WA NOT_NAMED 1961-01-14 18:00:00 NR -9.70000 134.500 main 247 244 O_____________ jtwc_sh SH131961 -9.70000 134.500 -1 3 283
1961014S10135 1961 9 SI WA NOT_NAMED 1961-01-14 21:00:00 NR -9.69241 134.353 main 244 237 P_____________ SH131961 -9.69241 134.353 -1 2 251
1961014S10135 1961 9 SI WA NOT_NAMED 1961-01-14 23:30:00 NR -9.75899 134.322 1004 bom main 230 230 P_____O_______ SH131961 -9.69874 134.153 -1 -10.0000 135.000 1004 4 136
1961014S10135 1961 9 SI WA NOT_NAMED 1961-01-15 00:00:00 TS -9.82897 134.485 main 236 222 O_____P__O____ jtwc_sh SH131961 -9.70000 134.100 -1 -10.0014 134.997 -10.0000 135.000 TC 20 1004 2 142
1961014S10135 1961 9 SI WA NOT_NAMED 1961-01-15 03:00:00 TS -9.87171 134.411 main 222 219 P_____P__P____ SH131961 -9.69999 133.702 -1 -10.0096 134.977 -10.0083 134.981 TC 2 246
1961014S10135 1961 9 SI WA NOT_NAMED 1961-01-15 06:00:00 TS -9.90137 134.312 main 219 217 O_____P__P____ jtwc_sh SH131961 -9.70000 133.200 -1 -10.0169 134.945 -10.0158 134.952 TC 3 261
1961014S10135 1961 9 SI WA NOT_NAMED 1961-01-15 09:00:00 TS -9.90975 134.153 main 217 200 P_____P__P____ SH131961 -9.68498 132.665 -1 -10.0225 134.892 -10.0217 134.903 TC 4 268
1961014S10135 1961 9 SI WA NOT_NAMED 1961-01-15 12:00:00 TS -9.91702 133.910 main 200 189 O_____P__P____ jtwc_sh SH131961 -9.70000 132.100 -1 -10.0257 134.806 -10.0254 134.823 TC 5 266
1961014S10135 1961 9 SI WA NOT_NAMED 1961-01-15 15:00:00 TS -9.94546 133.641 main 184 166 P_____P__P____ SH131961 -9.78495 131.543 -1 -10.0256 134.678 -10.0259 134.703 TC 6 263
1961014S10135 1961 9 SI WA NOT_NAMED 1961-01-15 18:00:00 TS -9.98125 133.344 main 162 154 O_____P__P____ jtwc_sh SH131961 -9.90000 131.000 -1 -10.0214 134.499 -10.0224 134.533 TC 6 265
1961014S10135 1961 9 SI WA NOT_NAMED 1961-01-15 21:00:00 TS -10.0037 133.012 main 154 141 P_____P__P____ SH131961 -9.98495 130.477 -1 -10.0122 134.257 -10.0141 134.302 TC 7 266
1961014S10135 1961 9 SI WA NOT_NAMED 1961-01-15 23:30:00 TS -10.0265 132.710 1000 bom main 141 141 P_____O__P____ SH131961 -10.0766 130.075 -1 -10.0000 134.000 1000 -10.0028 134.056 TC 7 265
1961014S10135 1961 9 SI WA NOT_NAMED 1961-01-16 00:00:00 TS -10.0323 132.647 main 138 123 O_____P__O____ jtwc_sh SH131961 -10.1000 130.000 -1 -9.99703 133.942 -10.0000 134.000 TC 30 1000 8 263
1961014S10135 1961 9 SI WA NOT_NAMED 1961-01-16 03:00:00 TS -10.0804 132.250 main 123 123 P_____P__P____ SH131961 -10.2849 129.578 -1 -9.97631 133.552 -9.98002 133.622 TC 8 263
1961014S10135 1961 9 SI WA NOT_NAMED 1961-01-16 06:00:00 TS -10.1370 131.826 main 125 116 O_____P__P____ jtwc_sh SH131961 -10.5000 129.200 -1 -9.95359 133.099 -9.95734 133.178 TC 9 263
1961014S10135 1961 9 SI WA NOT_NAMED 1961-01-16 09:00:00 TS -10.1846 131.380 main 123 123 P_____P__P____ SH131961 -10.6849 128.857 -1 -9.93296 132.598 -9.93608 132.684 TC 9 263
1961014S10135 1961 9 SI WA NOT_NAMED 1961-01-16 12:00:00 TS -10.2463 130.907 main 125 112 O_____P__P____ jtwc_sh SH131961 -10.9000 128.500 -1 -9.91863 132.065 -9.92040 132.156 TC 10 261
1961014S10135 1961 9 SI WA NOT_NAMED 1961-01-16 15:00:00 TS -10.3457 130.391 main 112 101 P_____P__P____ SH131961 -11.2076 128.050 -1 -9.91485 131.516 -9.91457 131.608 TC 10 259
1961014S10135 1961 9 SI WA NOT_NAMED 1961-01-16 18:00:00 TS -10.4496 129.873 main 116 109 O_____P__P____ jtwc_sh SH131961 -11.5000 127.600 -1 -9.92599 130.964 -9.92291 131.056 TC 10 259
1961014S10135 1961 9 SI WA NOT_NAMED 1961-01-16 21:00:00 TS -10.5313 129.382 main 133 133 P_____P__P____ SH131961 -11.6875 127.205 -1 -9.95650 130.427 -9.94988 130.515 TC 9 261
1961014S10135 1961 9 SI WA NOT_NAMED 1961-01-16 23:30:00 TS -10.5917 129.009 998 bom main 156 156 P_____O__P____ SH131961 -11.7854 126.942 -1 -10.0000 130.000 998 -9.98984 130.083 TC 9 260
1961014S10135 1961 9 SI WA NOT_NAMED 1961-01-17 00:00:00 TS -10.6045 128.940 main 165 165 O_____P__O____ jtwc_sh SH131961 -11.8000 126.900 -1 -10.0134 129.921 -10.0000 130.000 TC 35 998 8 257
1961014S10135 1961 9 SI WA NOT_NAMED 1961-01-17 03:00:00 TS -10.6913 128.564 main 186 186 P_____P__P____ SH131961 -11.8724 126.705 -1 -10.1097 129.455 -10.0919 129.531 TC 7 256
1961014S10135 1961 9 SI WA NOT_NAMED 1961-01-17 06:00:00 TS -10.7790 128.226 main 221 221 O_____P__P____ jtwc_sh SH131961 -11.9000 126.600 -1 -10.2291 129.003 -10.2078 129.077 TC 7 254
1961014S10135 1961 9 SI WA NOT_NAMED 1961-01-17 09:00:00 TS -10.8695 127.918 main 249 249 P_____P__P____ SH131961 -11.9000 126.542 -1 -10.3662 128.570 -10.3423 128.640 TC 6 252
1961014S10135 1961 9 SI WA NOT_NAMED 1961-01-17 12:00:00 TS -10.9684 127.629 main 254 244 O_____P__P____ jtwc_sh SH131961 -11.9000 126.500 -1 -10.5153 128.161 -10.4899 128.227 TC 6 249
1961014S10135 1961 9 SI WA NOT_NAMED 1961-01-17 15:00:00 TS -11.0887 127.343 main 251 247 P_____P__P____ SH131961 -11.9500 126.408 -1 -10.6711 127.781 -10.6449 127.842 TC 6 246
1961014S10135 1961 9 SI WA NOT_NAMED 1961-01-17 18:00:00 TS -11.2099 127.074 main 255 252 O_____P__P____ jtwc_sh SH131961 -12.0000 126.300 -1 -10.8279 127.434 -10.8019 127.489 TC 5 246
1961014S10135 1961 9 SI WA NOT_NAMED 1961-01-17 21:00:00 TS -11.3094 126.835 main 259 258 P_____P__P____ SH131961 -11.9925 126.207 -1 -10.9803 127.125 -10.9555 127.173 TC 5 246
1961014S10135 1961 9 SI WA NOT_NAMED 1961-01-17 23:30:00 TS -11.3904 126.654 998 bom main 269 266 P_____O__P____ SH131961 -11.9945 126.120 -1 -11.1000 126.900 998 -11.0768 126.942 TC 5 245
1961014S10135 1961 9 SI WA NOT_NAMED 1961-01-18 00:00:00 TS -11.4065 126.620 main 266 258 O_____P__O____ jtwc_sh SH131961 -12.0000 126.100 -1 -11.1195 126.860 -11.1000 126.900 TC 35 998 4 242
1961014S10135 1961 9 SI WA NOT_NAMED 1961-01-18 03:00:00 TS -11.5093 126.430 main 258 252 P_____P__P____ SH131961 -12.0925 125.950 -1 -11.2324 126.653 -11.2029 126.687 TC 4 239
1961014S10135 1961 9 SI WA NOT_NAMED 1961-01-18 06:00:00 TS -11.6127 126.270 main 254 247 O_____P__P____ jtwc_sh SH131961 -12.2000 125.800 -1 -11.3396 126.489 -11.2984 126.521 TC 3 236
1961014S10135 1961 9 SI WA NOT_NAMED 1961-01-18 09:00:00 TS -11.6965 126.147 main 250 240 P_____P__P____ SH131961 -12.2575 125.692 -1 -11.4420 126.359 -11.3899 126.389 TC 3 234
1961014S10135 1961 9 SI WA NOT_NAMED 1961-01-18 12:00:00 TS -11.7737 126.046 main 244 244 O_____P__P____ jtwc_sh SH131961 -12.3000 125.600 -1 -11.5406 126.254 -11.4806 126.283 TC 2 230
1961014S10135 1961 9 SI WA NOT_NAMED 1961-01-18 15:00:00 TS -11.8534 125.956 main 234 234 P_____P__P____ SH131961 -12.3500 125.515 -1 -11.6363 126.163 -11.5738 126.191 TC 2 228
1961014S10135 1961 9 SI WA NOT_NAMED 1961-01-18 18:00:00 TS -11.9342 125.860 main 236 226 O_____P__P____ jtwc_sh SH131961 -12.4000 125.400 -1 -11.7301 126.077 -11.6726 126.104 TC 3 233
1961014S10135 1961 9 SI WA NOT_NAMED 1961-01-18 21:00:00 TS -12.0256 125.723 main 228 217 P_____P__P____ SH131961 -12.4124 125.245 -1 -11.8228 125.986 -11.7803 126.010 TC 4 237
1961014S10135 1961 9 SI WA NOT_NAMED 1961-01-18 23:30:00 TS -12.1258 125.564 990 bom main 219 211 P_____O__P____ SH131961 -12.4749 125.049 -1 -11.9000 125.900 990 -11.8791 125.920 TC 5 237
1961014S10135 1961 9 SI WA NOT_NAMED 1961-01-19 00:00:00 TS -12.1715 125.491 main 211 203 O_____P__O____ jtwc_sh SH131961 -12.5000 125.000 -1 -11.9108 125.879 -11.9000 125.900 TC 45 990 7 237
1961014S10135 1961 9 SI WA NOT_NAMED 1961-01-19 03:00:00 NR -12.3625 125.190 main 203 199 P_____P__P____ SH131961 -12.7551 124.630 -1 -11.9699 125.749 -12.0559 125.700 TC 7 236
1961014S10135 1961 9 SI WA NOT_NAMED 1961-01-19 06:00:00 NR -12.5621 124.907 main 203 198 O_____P__P____ jtwc_sh SH131961 -13.1000 124.200 -1 -12.0241 125.615 -12.2275 125.479 TC 7 234
1961014S10135 1961 9 SI WA NOT_NAMED 1961-01-19 09:00:00 NR -12.7502 124.636 main 199 194 P_____P__P____ SH131961 -13.4199 123.800 -1 -12.0805 125.471 -12.4129 125.240 TC 7 233
1961014S10135 1961 9 SI WA NOT_NAMED 1961-01-19 12:00:00 NR -12.9729 124.358 main 194 187 O_____P__P____ jtwc_sh SH131961 -13.8000 123.400 -1 -12.1459 125.315 -12.6102 124.984 TC 8 227
1961014S10135 1961 9 SI WA NOT_NAMED 1961-01-19 15:00:00 NR -13.2710 124.072 main 187 186 P_____P__P____ SH131961 -14.3149 123.000 -1 -12.2271 125.143 -12.8174 124.714 TC 8 224
1961014S10135 1961 9 SI WA NOT_NAMED 1961-01-19 18:00:00 NR -13.5655 123.775 main 188 188 O_____P__P____ jtwc_sh SH131961 -14.8000 122.600 -1 -12.3310 124.950 -13.0326 124.433 TC 8 230
1961014S10135 1961 9 SI WA NOT_NAMED 1961-01-19 21:00:00 NR -13.7872 123.448 main 213 213 P_____P__P____ SH131961 -15.1101 122.162 -1 -12.4644 124.733 -13.2538 124.144 TC 7 237
1961014S10135 1961 9 SI WA NOT_NAMED 1961-01-20 00:00:00 NR -13.9671 123.144 main 227 227 O_____P__P____ jtwc_sh SH131961 -15.3000 121.800 -1 -12.6341 124.488 -13.4791 123.849 TC 7 238
1961014S10135 1961 9 SI WA NOT_NAMED 1961-01-20 01:00:00 NR -14.0265 123.058 990 bom main 227 225 P_____O__P____ SH131961 -15.3530 121.716 -1 -12.7000 124.400 990 -13.5547 123.750 TC 6 233
1961014S10135 1961 9 SI WA NOT_NAMED 1961-01-20 03:00:00 NR -14.1524 122.894 main 224 224 P_____P__P____ SH131961 -15.4299 121.597 -1 -12.8749 124.190 -13.7065 123.551 TC 6 230
1961014S10135 1961 9 SI WA NOT_NAMED 1961-01-20 06:00:00 NR -14.3367 122.673 main 233 227 O_____P__P____ jtwc_sh SH131961 -15.5000 121.500 -1 -13.1734 123.846 -13.9341 123.253 TC 6 229
1961014S10135 1961 9 SI WA NOT_NAMED 1961-01-20 09:00:00 NR -14.5272 122.455 main 227 211 P_____P__P____ SH131961 -15.5500 121.435 -1 -13.5043 123.475 -14.1601 122.956 TC 6 227
1961014S10135 1961 9 SI WA NOT_NAMED 1961-01-20 12:00:00 NR -14.7275 122.244 main 214 198 O_____P__P____ jtwc_sh SH131961 -15.6000 121.400 -1 -13.8551 123.088 -14.3826 122.665 TC 6 224
1961014S10135 1961 9 SI WA NOT_NAMED 1961-01-20 15:00:00 NR -14.9565 122.031 main 193 187 P_____P__P____ SH131961 -15.7000 121.365 -1 -14.2131 122.696 -14.5997 122.380 TC 6 223
1961014S10135 1961 9 SI WA NOT_NAMED 1961-01-20 18:00:00 NR -15.1830 121.805 main 187 185 O_____P__P____ jtwc_sh SH131961 -15.8000 121.300 -1 -14.5659 122.311 -14.8095 122.106 TC 6 227
1961014S10135 1961 9 SI WA NOT_NAMED 1961-01-20 21:00:00 NR -15.3643 121.573 main 185 185 P_____P__P____ SH131961 -15.8274 121.202 -1 -14.9013 121.943 -15.0102 121.845 TC 6 234
1961014S10135 1961 9 SI WA NOT_NAMED 1961-01-21 00:00:00 TS -15.5142 121.335 main 201 201 O_____P__O____ jtwc_sh SH131961 -15.9000 121.000 -1 -15.2069 121.604 -15.2000 121.600 TC 45 990 5 237
1961014S10135 1961 9 SI WA NOT_NAMED 1961-01-21 01:00:00 TS -15.5547 121.269 990 bom main 193 193 P_____O__P____ SH131961 -15.9605 120.903 -1 -15.3000 121.500 990 -15.2527 121.541 TC 5 234
1961014S10135 1961 9 SI WA NOT_NAMED 1961-01-21 03:00:00 TS -15.6651 121.118 main 200 200 P_____P__P____ SH131961 -16.1199 120.660 -1 -15.4423 121.345 -15.3556 121.426 TC 6 233
1961014S10135 1961 9 SI WA NOT_NAMED 1961-01-21 06:00:00 TS -15.8449 120.869 main 208 200 O_____P__P____ jtwc_sh SH131961 -16.4000 120.200 -1 -15.6296 121.143 -15.5051 121.263 TC 6 235
1961014S10135 1961 9 SI WA NOT_NAMED 1961-01-21 09:00:00 TS -16.0282 120.583 main 219 219 P_____P__P____ SH131961 -16.6425 119.680 -1 -15.7914 120.967 -15.6508 121.102 TC 7 237
1961014S10135 1961 9 SI WA NOT_NAMED 1961-01-21 12:00:00 TS -16.2098 120.281 main 235 235 O_____P__P____ jtwc_sh SH131961 -16.9000 119.100 -1 -15.9345 120.806 -15.7949 120.937 TC 7 238
1961014S10135 1961 9 SI WA NOT_NAMED 1961-01-21 15:00:00 TS -16.4017 119.960 main 254 254 P_____P__P____ SH131961 -17.2002 118.470 -1 -16.0654 120.648 -15.9396 120.762 TC 7 238
1961014S10135 1961 9 SI WA NOT_NAMED 1961-01-21 18:00:00 TS -16.5928 119.650 main 277 277 O_____P__P____ jtwc_sh SH131961 -17.5000 117.900 -1 -16.1910 120.482 -16.0873 120.569 TC 7 236
1961014S10135 1961 9 SI WA NOT_NAMED 1961-01-21 21:00:00 TS -16.7792 119.376 main 300 300 P_____P__P____ SH131961 -17.7798 117.482 -1 -16.3178 120.297 -16.2400 120.350 TC 6 234
1961014S10135 1961 9 SI WA NOT_NAMED 1961-01-22 00:00:00 TS -16.9508 119.127 main 325 325 O_____P__O____ jtwc_sh SH131961 -18.0000 117.200 -1 -16.4523 120.081 -16.4000 120.100 TC 45 990 6 235
1961014S10135 1961 9 SI WA NOT_NAMED 1961-01-22 01:00:00 TS -17.0043 119.040 990 bom main 335 335 P_____O__P____ SH131961 -18.0530 117.124 -1 -16.5000 120.000 990 -16.4599 119.995 TC 6 238
1961014S10135 1961 9 SI WA NOT_NAMED 1961-01-22 03:00:00 TS -17.1119 118.856 main 336 317 P_____P__P____ SH131961 -18.1299 117.012 -1 -16.6229 119.785 -16.5827 119.772 TC 6 240
1961014S10135 1961 9 SI WA NOT_NAMED 1961-01-22 06:00:00 TS -17.2624 118.580 main 317 310 O_____P__P____ jtwc_sh SH131961 -18.2000 116.900 -1 -16.8144 119.431 -16.7727 119.409 TC 6 241
1961014S10135 1961 9 SI WA NOT_NAMED 1961-01-22 09:00:00 TS -17.4068 118.291 main 313 305 P_____P__P____ SH131961 -18.2425 116.800 -1 -17.0111 119.049 -16.9669 119.022 TC 6 242
1961014S10135 1961 9 SI WA NOT_NAMED 1961-01-22 12:00:00 TS -17.5572 117.991 main 302 301 O_____P__P____ jtwc_sh SH131961 -18.3000 116.700 -1 -17.2093 118.651 -17.1624 118.622 TC 7 242
1961014S10135 1961 9 SI WA NOT_NAMED 1961-01-22 15:00:00 TS -17.7247 117.675 main 304 289 P_____P__P____ SH131961 -18.4125 116.557 -1 -17.4054 118.247 -17.3562 118.219 TC 7 239
1961014S10135 1961 9 SI WA NOT_NAMED 1961-01-22 18:00:00 TS -17.9138 117.357 main 289 277 O_____P__P____ jtwc_sh SH131961 -18.6000 116.400 -1 -17.5960 117.848 -17.5455 117.824 TC 7 236
1961014S10135 1961 9 SI WA NOT_NAMED 1961-01-22 21:00:00 TS -18.1201 117.059 main 277 257 P_____P__P____ SH131961 -18.8549 116.265 -1 -17.7776 117.466 -17.7277 117.447 TC 7 232
1961014S10135 1961 9 SI WA NOT_NAMED 1961-01-23 00:00:00 TS -18.3490 116.770 main 257 246 O_____P__O____ jtwc_sh SH131961 -19.2000 116.100 -1 -17.9469 117.110 -17.9000 117.100 TC 70 970 7 230
1961014S10135 1961 9 SI WA NOT_NAMED 1961-01-23 01:00:00 TS -18.4278 116.675 970 bom main 246 224 P_____O__P____ SH131961 -19.3302 116.031 -1 -18.0000 117.000 970 -17.9532 116.993 TC 71 969 7 228
1961014S10135 1961 9 SI WA NOT_NAMED 1961-01-23 03:00:00 TS -18.5905 116.484 main 224 205 P_____P__P____ SH131961 -19.6200 115.872 -1 -18.0948 116.794 968 -18.0568 116.787 TC 73 967 7 227
1961014S10135 1961 9 SI WA NOT_NAMED 1961-01-23 06:00:00 TS -18.8455 116.200 main 208 193 O_____P__P____ jtwc_sh SH131961 -20.1000 115.600 -1 -18.2296 116.504 965 -18.2071 116.498 TC 77 965 6 232
1961014S10135 1961 9 SI WA NOT_NAMED 1961-01-23 09:00:00 TS -18.9695 115.979 main 193 193 P_____P__P____ SH131961 -20.5976 115.305 -1 -18.3621 116.239 962 -18.3538 116.234 TC 81 962 4 245
1961014S10135 1961 9 SI WA NOT_NAMED 1961-01-23 12:00:00 TS -19.0200 115.800 960 bom main 202 202 O_____O__O____ jtwc_sh SH131961 -21.1000 115.000 -1 -18.5000 116.000 960 -18.5000 116.000 TC 85 960 3 275
1961014S10135 1961 9 SI WA NOT_NAMED 1961-01-23 15:00:00 TS -18.9429 115.664 main 217 217 ______P__P____ SH131961 -1 -18.6203 115.768 957 -18.6157 115.781 TC 87 957 3 323
1961014S10135 1961 9 SI WA NOT_NAMED 1961-01-23 18:00:00 TS -18.7432 115.578 main 241 233 ______P__P____ -1 -18.7496 115.563 955 -18.7367 115.592 TC 90 955 2 280
1961014S10135 1961 9 SI WA NOT_NAMED 1961-01-23 21:00:00 TS -18.8988 115.410 main 233 222 ______P__P____ -1 -18.9082 115.387 953 -18.8894 115.432 TC 92 952 5 219
1961014S10135 1961 9 SI WA NOT_NAMED 1961-01-24 00:00:00 TS -19.1081 115.271 main 222 216 ______P__O____ -1 -19.1162 115.241 950 -19.1000 115.300 TC 95 950 5 211
1961014S10135 1961 9 SI WA NOT_NAMED 1961-01-24 01:00:00 TS -19.1917 115.225 950 bom main 216 203 ______O__P____ -1 -19.2000 115.200 950 -19.1834 115.250 TC 6 208
1961014S10135 1961 9 SI WA NOT_NAMED 1961-01-24 03:00:00 TS -19.3722 115.128 main 203 182 ______P__P____ -1 -19.3725 115.101 -19.3720 115.155 TC 7 203
1961014S10135 1961 9 SI WA NOT_NAMED 1961-01-24 06:00:00 TS -19.6926 115.003 main 182 161 ______P__P____ -1 -19.6781 114.973 -19.7070 115.033 TC 7 196
1961014S10135 1961 9 SI WA NOT_NAMED 1961-01-24 09:00:00 TS -20.0715 114.909 main 152 121 ______P__P____ -1 -20.0417 114.879 -20.1012 114.939 TC 8 190
1961014S10135 1961 9 SI WA NOT_NAMED 1961-01-24 12:00:00 TS -20.5081 114.853 main 121 78 ______P__P____ -1 -20.4655 114.824 -20.5507 114.881 TC 9 184
1961014S10135 1961 9 SI WA NOT_NAMED 1961-01-24 15:00:00 TS -21.0016 114.842 main 78 22 ______P__P____ -1 -20.9516 114.818 -21.0516 114.866 TC 10 178
1961014S10135 1961 9 SI WA NOT_NAMED 1961-01-24 18:00:00 TS -21.5510 114.885 main 11 0 ______P__O____ -1 -21.5019 114.869 -21.6000 114.900 TC 120 920 11 174
1961014S10135 1961 9 SI WA NOT_NAMED 1961-01-24 19:00:00 TS -21.7446 114.910 920 bom main 0 0 ______O__P____ -1 -21.7000 114.900 920 4 -21.7892 114.919 TC 115 924 12 172
1961014S10135 1961 9 SI WA NOT_NAMED 1961-01-24 21:00:00 TS -22.1490 114.974 main 0 0 ______P__P____ -1 -22.1130 114.972 930 -22.1851 114.975 TC 107 935 13 169
1961014S10135 1961 9 SI WA NOT_NAMED 1961-01-25 00:00:00 TS -22.7875 115.117 main 0 0 ______P__O____ -1 -22.7751 115.133 945 -22.8000 115.100 TC 95 950 13 168
1961014S10135 1961 9 SI WA NOT_NAMED 1961-01-25 01:00:00 TS -23.0000 115.167 950 bom main 0 0 ______O__P____ -1 -23.0000 115.200 950 -23.0000 115.133 TC 13 167
1961014S10135 1961 9 SI WA NOT_NAMED 1961-01-25 03:00:00 TS -23.4245 115.275 main 0 0 ______P__P____ -1 -23.4492 115.348 955 -23.3997 115.202 TC 13 166
1961014S10135 1961 9 SI WA NOT_NAMED 1961-01-25 06:00:00 TS -24.0629 115.466 main 0 0 ______P__P____ -1 -24.1276 115.614 963 -23.9983 115.319 TC 13 164
1961014S10135 1961 9 SI WA NOT_NAMED 1961-01-25 09:00:00 TS -24.6913 115.685 main 0 0 ______P__P____ -1 -24.7882 115.903 972 -24.5945 115.466 TC 13 162
1961014S10135 1961 9 SI WA NOT_NAMED 1961-01-25 10:00:00 TS -24.8962 115.762 975 bom main 0 0 ______O__P____ -1 -25.0000 116.000 975 -24.7925 115.524 TC 13 162
1961014S10135 1961 9 SI WA NOT_NAMED 1961-01-25 12:00:00 TS -25.2936 115.895 main 0 0 ______P__P____ -1 -25.3999 116.132 -25.1873 115.658 TC 12 162
1961014S10135 1961 9 SI WA NOT_NAMED 1961-01-25 15:00:00 TS -25.8706 116.111 main 0 0 ______P__P____ -1 -25.9656 116.312 -25.7756 115.911 TC 12 159
1961014S10135 1961 9 SI WA NOT_NAMED 1961-01-25 18:00:00 TS -26.4296 116.376 main 0 0 ______P__P____ -1 -26.5011 116.511 -26.3581 116.241 TC 12 154
1961014S10135 1961 9 SI WA NOT_NAMED 1961-01-25 21:00:00 TS -26.9760 116.719 main 0 0 ______P__P____ -1 -27.0184 116.772 -26.9335 116.665 TC 13 147
1961014S10135 1961 9 SI WA NOT_NAMED 1961-01-26 00:00:00 TS -27.5146 117.172 main 0 0 ______P__O____ -1 -27.5292 117.144 -27.5000 117.200 TC 55 985 14 142
1961014S10135 1961 9 SI WA NOT_NAMED 1961-01-26 01:00:00 TS -27.6932 117.353 985 bom main 0 0 ______O__P____ -1 -27.7000 117.300 985 -27.6865 117.406 TC 15 136
1961014S10135 1961 9 SI WA NOT_NAMED 1961-01-26 03:00:00 TS -28.0499 117.764 main 0 0 ______P__P____ -1 -28.0440 117.669 -28.0558 117.858 TC 16 131
1961014S10135 1961 9 SI WA NOT_NAMED 1961-01-26 06:00:00 TS -28.5825 118.493 main 0 0 ______P__P____ -1 -28.5649 118.355 -28.6001 118.632 TC 18 127
1961014S10135 1961 9 SI WA NOT_NAMED 1961-01-26 09:00:00 TS -29.1106 119.346 main 0 0 ______P__P____ -1 -29.0888 119.183 -29.1324 119.508 TC 19 124
1961014S10135 1961 9 SI WA NOT_NAMED 1961-01-26 12:00:00 TS -29.6322 120.304 main 0 0 ______P__P____ -1 -29.6124 120.136 -29.6521 120.471 TC 20 121
1961014S10135 1961 9 SI WA NOT_NAMED 1961-01-26 15:00:00 TS -30.1455 121.350 main 0 0 ______P__P____ -1 -30.1321 121.193 -30.1588 121.508 TC 21 119
1961014S10135 1961 9 SI WA NOT_NAMED 1961-01-26 18:00:00 TS -30.6481 122.448 main 0 0 ______P__P____ -1 -30.6449 122.334 -30.6522 122.602 TC 22 117
1961014S10135 1961 9 SI WA NOT_NAMED 1961-01-26 21:00:00 TS -31.1418 123.617 main 0 0 ______P__P____ -1 -31.1480 123.537 -31.1324 123.738 TC 23 116
1961014S10135 1961 9 SI WA NOT_NAMED 1961-01-27 00:00:00 TS -31.6261 124.820 main 0 0 ______P__O____ -1 -31.6392 124.780 -31.6000 124.900 TC 45 992 23 116
1961014S10135 1961 9 SI WA NOT_NAMED 1961-01-27 01:00:00 NR -31.8000 125.200 992 bom main 0 ______O_______ -1 -31.8000 125.200 992 TC 22 118

Digital Typhoon Data and Search

About IBTrACS Database

This database is a web-friendly format of International Best Track Archive for Climate Stewardship (IBTrACS), a global best track data archive curated by NOAA dating back to 1842.

Updated: 2021-10-21